Terminal Aerodrome Forecast
Issued by NWS

Home | Current Version | Previous Version | Text Only | Print | Product List | Glossary On
Versions: 1 2 3 4 5 6 7 8 9 10 11 12 13 14 15 16 17 18 19 20 21 22 23 24 25 26 27
000
FTUS44 KHGX 020520
TAFLBX
TAF
KLBX 020520Z 0206/0306 01009KT P6SM BKN060
      TEMPO 0210/0214 BKN030
     FM021400 36008KT P6SM SCT035
     FM030100 VRB03KT P6SM FEW040=

USA.gov is the U.S. government's official web portal to all federal, state and local government web resources and services.